Time;durP1;ratioP1;P1;durP2;ratioP2;P2;SDS_P1;SDS_P2;PMS_P1;PMS_P2;Temp;Humidity;BMP_temperature;BMP_pressure;BME280_temperature;BME280_humidity;BME280_pressure;Samples;Min_cycle;Max_cycle;Signal;HPM_P1;HPM_P2
2020/12/04 00:02:20;;;;;;;49.42;21.33;;;14.30;55.80;;;;;;5108516;28;20027;-74
2020/12/04 00:04:47;;;;;;;49.10;23.10;;;14.20;55.80;;;;;;5090953;28;20032;-74
2020/12/04 00:07:14;;;;;;;48.58;22.42;;;14.20;55.60;;;;;;5093024;28;20032;-74
2020/12/04 00:09:42;;;;;;;46.10;22.77;;;14.20;55.70;;;;;;5091260;28;20036;-72
2020/12/04 00:12:09;;;;;;;48.72;23.02;;;14.20;55.90;;;;;;5091689;28;20492;-72
2020/12/04 00:14:36;;;;;;;55.35;23.00;;;14.00;56.00;;;;;;5112584;28;20027;-73
2020/12/04 00:17:04;;;;;;;49.30;21.45;;;13.90;56.10;;;;;;5106665;28;20586;-73
2020/12/04 00:19:31;;;;;;;50.65;22.73;;;13.90;56.80;;;;;;5111737;28;20028;-73
2020/12/04 00:21:59;;;;;;;50.33;22.65;;;13.70;56.50;;;;;;5111610;28;20020;-73
2020/12/04 00:24:29;;;;;;;46.25;22.23;;;13.70;56.60;;;;;;5096549;28;20043;-73
2020/12/04 00:26:56;;;;;;;50.05;21.73;;;13.70;56.20;;;;;;5100040;28;20447;-73
2020/12/04 00:29:29;;;;;;;47.13;21.13;;;13.70;56.30;;;;;;5110379;28;20042;-73
2020/12/04 00:31:57;;;;;;;51.40;21.42;;;13.70;56.10;;;;;;5091711;28;20048;-74
2020/12/04 00:34:25;;;;;;;44.15;20.38;;;13.60;56.20;;;;;;5096508;28;20035;-74
2020/12/04 00:36:52;;;;;;;50.75;21.50;;;13.60;56.20;;;;;;5094847;28;20028;-74
2020/12/04 00:39:19;;;;;;;44.95;22.30;;;13.60;56.20;;;;;;5095340;28;20460;-73
2020/12/04 00:41:46;;;;;;;42.78;21.38;;;13.60;56.40;;;;;;5099669;28;20020;-75
2020/12/04 00:44:14;;;;;;;53.15;21.60;;;13.50;56.40;;;;;;5097408;28;20040;-73
2020/12/04 00:46:41;;;;;;;49.75;21.13;;;13.40;56.60;;;;;;5103029;28;20039;-74
2020/12/04 00:49:08;;;;;;;46.25;20.77;;;13.40;56.60;;;;;;5091727;28;20016;-74
2020/12/04 00:51:35;;;;;;;49.13;20.55;;;13.40;56.80;;;;;;5105880;28;20043;-73
2020/12/04 00:54:03;;;;;;;56.40;20.63;;;13.30;56.70;;;;;;5090921;28;20052;-73
2020/12/04 00:56:31;;;;;;;52.13;20.23;;;13.30;56.70;;;;;;5090071;28;20047;-72
2020/12/04 00:58:59;;;;;;;50.33;20.50;;;13.30;56.80;;;;;;5093621;28;20032;-74
2020/12/04 01:01:26;;;;;;;49.55;22.20;;;13.30;56.60;;;;;;5097240;28;20648;-72
2020/12/04 01:03:53;;;;;;;60.38;20.77;;;13.30;56.70;;;;;;5095619;28;20032;-72
2020/12/04 01:06:21;;;;;;;49.10;21.10;;;13.30;56.50;;;;;;5095075;28;20028;-73
2020/12/04 01:08:48;;;;;;;46.20;19.42;;;13.30;56.40;;;;;;5095345;28;20516;-72
2020/12/04 01:11:15;;;;;;;40.63;19.33;;;13.20;56.30;;;;;;5100543;28;20047;-73
2020/12/04 01:13:42;;;;;;;42.00;19.15;;;13.30;56.40;;;;;;5109482;28;20040;-73
2020/12/04 01:16:10;;;;;;;53.35;21.65;;;13.30;56.40;;;;;;5094960;28;20024;-72
2020/12/04 01:18:38;;;;;;;42.38;19.55;;;13.30;56.30;;;;;;5094512;28;20032;-73
2020/12/04 01:21:07;;;;;;;48.40;20.77;;;13.30;56.10;;;;;;5100047;28;20043;-73
2020/12/04 01:23:34;;;;;;;48.17;20.98;;;13.30;56.20;;;;;;5102489;28;20031;-74
2020/12/04 01:26:01;;;;;;;45.17;20.58;;;13.30;56.00;;;;;;5114053;28;20027;-74
2020/12/04 01:28:28;;;;;;;43.22;20.10;;;13.30;55.90;;;;;;5112122;28;20027;-74
2020/12/04 01:30:59;;;;;;;45.95;19.50;;;13.30;56.20;;;;;;5098957;28;20031;-74
2020/12/04 01:33:26;;;;;;;51.35;20.33;;;13.20;56.20;;;;;;5096694;28;20040;-74
2020/12/04 01:35:53;;;;;;;49.33;20.58;;;13.20;56.20;;;;;;5114990;28;20031;-74
2020/12/04 01:38:20;;;;;;;43.22;19.63;;;13.20;56.20;;;;;;5114746;28;20019;-74
2020/12/04 01:40:47;;;;;;;49.80;21.23;;;13.20;56.20;;;;;;5113669;28;20042;-74
2020/12/04 01:43:14;;;;;;;54.13;20.50;;;13.10;56.50;;;;;;5115014;28;20039;-74
2020/12/04 01:45:41;;;;;;;46.88;19.58;;;13.00;56.50;;;;;;5115056;28;20380;-74
2020/12/04 01:48:08;;;;;;;41.25;18.52;;;13.00;56.50;;;;;;5114751;28;20024;-75
2020/12/04 01:50:35;;;;;;;44.75;18.92;;;13.00;56.70;;;;;;5115065;28;20024;-72
2020/12/04 01:53:03;;;;;;;47.40;19.70;;;13.00;57.20;;;;;;5113834;28;20044;-72
2020/12/04 01:55:30;;;;;;;42.38;19.42;;;13.00;56.80;;;;;;5114897;28;20388;-73
2020/12/04 01:58:03;;;;;;;50.58;19.20;;;12.90;56.70;;;;;;5114687;28;20024;-74
2020/12/04 02:00:30;;;;;;;45.88;20.50;;;13.00;56.40;;;;;;5096123;28;20031;-74
2020/12/04 02:02:57;;;;;;;40.72;18.90;;;13.00;56.60;;;;;;5113976;28;20364;-74
2020/12/04 02:05:24;;;;;;;46.88;20.10;;;13.00;56.50;;;;;;5114379;28;20081;-73
2020/12/04 02:08:05;;;;;;;55.38;19.20;;;13.10;56.40;;;;;;5114576;28;20421;-73
2020/12/04 02:10:59;;;;;;;45.55;19.02;;;13.10;56.50;;;;;;5114702;28;20482;-72
2020/12/04 02:13:29;;;;;;;43.45;19.65;;;13.00;56.50;;;;;;5114399;28;20043;-73
2020/12/04 02:15:57;;;;;;;42.97;19.08;;;13.00;56.30;;;;;;5114098;28;20027;-72
2020/12/04 02:18:24;;;;;;;48.10;21.15;;;13.00;56.40;;;;;;5112620;28;20047;-73
2020/12/04 02:20:59;;;;;;;45.92;20.08;;;13.00;56.50;;;;;;5114313;28;20379;-74
2020/12/04 02:23:26;;;;;;;45.67;18.98;;;13.10;56.40;;;;;;5114278;28;20039;-73
2020/12/04 02:25:57;;;;;;;52.20;19.80;;;13.00;57.10;;;;;;5114459;28;20019;-74
2020/12/04 02:28:37;;;;;;;45.60;19.52;;;13.00;56.80;;;;;;5113629;28;20043;-74
2020/12/04 02:31:06;;;;;;;44.47;17.90;;;13.10;56.60;;;;;;5113726;28;20037;-74
2020/12/04 02:33:34;;;;;;;40.50;19.55;;;13.10;56.70;;;;;;5113475;28;20300;-74
2020/12/04 02:36:05;;;;;;;48.28;20.88;;;13.00;57.30;;;;;;5114054;28;20475;-74
2020/12/04 02:38:33;;;;;;;54.47;19.15;;;13.00;56.70;;;;;;5113229;28;20496;-74
2020/12/04 02:41:04;;;;;;;43.10;17.98;;;13.10;56.50;;;;;;5114133;28;20051;-73
2020/12/04 02:43:31;;;;;;;;;;;13.00;56.70;;;;;;5114468;28;20035;-74
2020/12/04 02:45:58;;;;;;;44.15;18.88;;;12.90;56.80;;;;;;5113900;28;19915;-74
2020/12/04 02:48:25;;;;;;;49.63;19.05;;;13.00;56.60;;;;;;5113731;28;20024;-74
2020/12/04 02:50:52;;;;;;;44.33;18.10;;;13.10;56.50;;;;;;5113639;28;20036;-74
2020/12/04 02:53:19;;;;;;;46.63;19.30;;;13.10;56.60;;;;;;5113259;28;20046;-73
2020/12/04 02:55:46;;;;;;;47.15;18.08;;;13.10;56.20;;;;;;5113245;28;20044;-74
2020/12/04 02:58:13;;;;;;;41.83;17.48;;;13.00;56.30;;;;;;5113576;28;20044;-74
2020/12/04 03:00:40;;;;;;;37.53;17.42;;;13.10;56.00;;;;;;5113294;28;20039;-74
2020/12/04 03:03:07;;;;;;;43.22;18.60;;;13.20;55.50;;;;;;5111557;28;20047;-75
2020/12/04 03:05:34;;;;;;;41.55;18.05;;;13.20;55.30;;;;;;5113661;28;20046;-73
2020/12/04 03:08:01;;;;;;;36.95;16.75;;;13.20;55.30;;;;;;5113182;28;20045;-74
2020/12/04 03:10:28;;;;;;;34.60;15.95;;;13.20;55.00;;;;;;5111525;28;20036;-73
2020/12/04 03:12:55;;;;;;;44.80;17.27;;;13.10;55.10;;;;;;5113213;28;20589;-74
2020/12/04 03:15:22;;;;;;;32.45;14.38;;;13.10;53.80;;;;;;5113216;28;20019;-74
2020/12/04 03:17:49;;;;;;;35.75;15.98;;;13.20;53.60;;;;;;5113304;28;20023;-74
2020/12/04 03:20:16;;;;;;;31.20;14.45;;;13.10;54.00;;;;;;5112402;28;20016;-74
2020/12/04 03:22:43;;;;;;;41.22;15.90;;;12.90;54.10;;;;;;5113223;28;20028;-73
2020/12/04 03:25:10;;;;;;;51.30;15.95;;;13.10;53.20;;;;;;5112449;28;20043;-74
2020/12/04 03:27:37;;;;;;;35.70;14.65;;;13.20;52.30;;;;;;5113137;28;20035;-74
2020/12/04 03:30:04;;;;;;;37.95;14.38;;;13.20;53.40;;;;;;5112994;28;20237;-73
2020/12/04 03:32:31;;;;;;;35.13;14.25;;;13.00;53.80;;;;;;5111699;28;20023;-74
2020/12/04 03:34:58;;;;;;;35.92;16.08;;;13.00;53.60;;;;;;5112958;28;20027;-73
2020/12/04 03:37:28;;;;;;;33.65;13.85;;;13.00;53.00;;;;;;5111661;28;20034;-73
2020/12/04 03:39:55;;;;;;;32.00;11.40;;;13.20;52.30;;;;;;5099974;28;20024;-74
2020/12/04 03:42:22;;;;;;;21.17;10.18;;;13.10;51.40;;;;;;5099704;28;20023;-73
2020/12/04 03:44:49;;;;;;;22.90;9.27;;;13.20;50.90;;;;;;5112649;28;20027;-74
2020/12/04 03:47:16;;;;;;;22.42;8.68;;;13.30;50.30;;;;;;5112882;28;20019;-74
2020/12/04 03:49:43;;;;;;;22.58;9.52;;;13.30;50.10;;;;;;5112738;28;20380;-74
2020/12/04 03:52:10;;;;;;;27.40;11.30;;;13.20;50.20;;;;;;5110348;28;20035;-74
2020/12/04 03:54:37;;;;;;;32.15;11.45;;;13.10;50.90;;;;;;5107626;28;20408;-73
2020/12/04 03:57:04;;;;;;;32.53;12.35;;;13.00;51.50;;;;;;5112170;28;20016;-73
2020/12/04 03:59:33;;;;;;;26.85;12.13;;;13.00;51.80;;;;;;5112420;28;20562;-74
2020/12/04 04:02:00;;;;;;;40.78;13.98;;;13.20;51.70;;;;;;5104838;28;20034;-74
2020/12/04 04:04:27;;;;;;;34.03;14.02;;;13.20;52.00;;;;;;5092747;28;20031;-73
2020/12/04 04:06:54;;;;;;;35.63;14.65;;;13.10;52.60;;;;;;5106508;28;20038;-72
2020/12/04 04:09:21;;;;;;;37.78;15.63;;;13.10;52.90;;;;;;5091839;28;20020;-73
2020/12/04 04:11:48;;;;;;;41.00;17.45;;;13.10;53.50;;;;;;5106442;28;20039;-72
2020/12/04 04:14:15;;;;;;;41.00;15.73;;;13.20;53.90;;;;;;5111998;28;20054;-74
2020/12/04 04:16:42;;;;;;;38.47;15.93;;;13.20;54.10;;;;;;5111915;28;20019;-74
2020/12/04 04:19:09;;;;;;;43.38;18.95;;;13.20;54.10;;;;;;5110755;28;20027;-74
2020/12/04 04:21:39;;;;;;;46.75;16.83;;;13.20;54.20;;;;;;5103240;28;20042;-73
2020/12/04 04:24:07;;;;;;;41.47;16.20;;;13.20;54.00;;;;;;5091495;28;20380;-73
2020/12/04 04:26:34;;;;;;;39.47;16.83;;;13.20;53.70;;;;;;5099883;28;20024;-74
2020/12/04 04:29:02;;;;;;;57.63;17.13;;;13.20;53.70;;;;;;5108774;28;20043;-74
2020/12/04 04:31:29;;;;;;;43.58;17.20;;;13.20;53.80;;;;;;5106230;28;20028;-74
2020/12/04 04:33:56;;;;;;;40.53;17.00;;;13.20;53.60;;;;;;5091211;28;20047;-73
2020/12/04 04:36:23;;;;;;;56.65;27.65;;;13.20;53.20;;;;;;5095465;28;20027;-73
2020/12/04 04:38:50;;;;;;;156.85;66.35;;;13.30;53.10;;;;;;5110571;28;20028;-73
2020/12/04 04:41:17;;;;;;;70.28;27.77;;;13.20;52.80;;;;;;5091578;28;20024;-73
2020/12/04 04:43:44;;;;;;;42.97;17.77;;;13.30;52.80;;;;;;5112051;28;20035;-73
2020/12/04 04:46:21;;;;;;;50.58;16.48;;;13.20;52.90;;;;;;5111923;28;20032;-73
2020/12/04 04:48:55;;;;;;;38.85;16.73;;;13.20;52.80;;;;;;5091681;28;20036;-73
2020/12/04 04:51:25;;;;;;;41.67;17.55;;;13.30;52.60;;;;;;5092033;28;20032;-73
2020/12/04 04:53:57;;;;;;;49.47;19.15;;;13.30;52.50;;;;;;5093602;28;20036;-72
2020/12/04 04:56:25;;;;;;;52.78;20.52;;;13.30;52.50;;;;;;5110925;28;20042;-72
2020/12/04 04:58:52;;;;;;;64.85;28.48;;;13.20;52.10;;;;;;5109727;28;20023;-73
2020/12/04 05:01:19;;;;;;;49.35;20.85;;;13.20;51.90;;;;;;5092388;28;20353;-73
2020/12/04 05:04:00;;;;;;;43.88;16.48;;;13.20;52.10;;;;;;5105936;28;20375;-73
2020/12/04 05:06:37;;;;;;;51.43;19.13;;;13.20;51.70;;;;;;5110845;28;20048;-73
2020/12/04 05:09:05;;;;;;;42.78;16.00;;;13.20;51.70;;;;;;5094831;28;20028;-72
2020/12/04 05:11:33;;;;;;;45.30;16.95;;;13.20;51.40;;;;;;5098875;28;20027;-73
2020/12/04 05:14:25;;;;;;;42.90;16.95;;;13.20;51.00;;;;;;5111176;28;20036;-73
2020/12/04 05:16:54;;;;;;;42.58;17.52;;;13.30;50.80;;;;;;5101162;28;20047;-74
2020/12/04 05:19:34;;;;;;;53.55;17.23;;;13.30;50.80;;;;;;5091152;28;20032;-73
2020/12/04 05:22:17;;;;;;;42.22;16.23;;;13.30;50.30;;;;;;5101815;28;20019;-73
2020/12/04 05:24:45;;;;;;;33.30;14.27;;;13.20;50.60;;;;;;5111311;28;20400;-73
2020/12/04 05:27:29;;;;;;;41.90;15.25;;;13.10;50.80;;;;;;5110811;28;20030;-73
2020/12/04 05:29:59;;;;;;;35.17;15.20;;;13.10;50.90;;;;;;5109961;28;20040;-73
2020/12/04 05:32:27;;;;;;;42.17;16.25;;;13.00;51.00;;;;;;5109715;28;20028;-73
2020/12/04 05:35:09;;;;;;;38.40;15.30;;;13.00;51.10;;;;;;5110961;28;20039;-73
2020/12/04 05:37:36;;;;;;;39.53;14.73;;;13.00;50.80;;;;;;5096467;28;20036;-73
2020/12/04 05:40:07;;;;;;;39.08;16.65;;;13.00;50.90;;;;;;5091265;28;20036;-73
2020/12/04 05:42:41;;;;;;;35.97;15.17;;;12.90;51.10;;;;;;5093019;28;20028;-73
2020/12/04 05:45:08;;;;;;;47.63;14.98;;;12.80;51.20;;;;;;5107822;28;20040;-73
2020/12/04 05:47:40;;;;;;;46.38;16.02;;;12.80;51.10;;;;;;5100466;28;20062;-73
2020/12/04 05:50:10;;;;;;;40.47;15.57;;;12.90;51.00;;;;;;5094411;28;20035;-73
2020/12/04 05:52:38;;;;;;;34.85;14.40;;;12.80;51.10;;;;;;5095515;28;20040;-73
2020/12/04 05:55:08;;;;;;;44.92;15.10;;;12.80;51.30;;;;;;5094689;28;20036;-73
2020/12/04 05:57:45;;;;;;;39.45;14.60;;;12.80;51.20;;;;;;5100575;28;20780;-73
2020/12/04 06:00:13;;;;;;;39.30;15.38;;;12.90;51.10;;;;;;5114848;28;20031;-73
2020/12/04 06:02:40;;;;;;;40.70;15.23;;;12.90;51.20;;;;;;5112778;28;20031;-74
2020/12/04 06:05:12;;;;;;;41.85;15.55;;;12.90;51.20;;;;;;5114399;28;20042;-72
2020/12/04 06:07:40;;;;;;;38.60;14.85;;;12.80;51.30;;;;;;5106518;28;20039;-73
2020/12/04 06:10:08;;;;;;;48.47;14.65;;;12.80;50.80;;;;;;5093621;28;20032;-73
2020/12/04 06:12:35;;;;;;;37.17;15.07;;;12.80;51.00;;;;;;5095276;28;20024;-73
2020/12/04 06:15:27;;;;;;;46.47;15.73;;;12.80;50.80;;;;;;5097773;28;20388;-74
2020/12/04 06:18:07;;;;;;;44.47;15.82;;;12.90;50.70;;;;;;5114404;28;20024;-72
2020/12/04 06:20:46;;;;;;;53.50;21.40;;;12.90;50.60;;;;;;5106155;28;20089;-73
2020/12/04 06:23:15;;;;;;;105.22;43.00;;;12.90;50.50;;;;;;5103940;28;20035;-74
2020/12/04 06:25:57;;;;;;;224.65;100.57;;;12.90;50.50;;;;;;5105812;28;20377;-73
2020/12/04 06:28:26;;;;;;;650.50;458.60;;;12.90;50.70;;;;;;5093780;28;20045;-73
2020/12/04 06:31:03;;;;;;;190.18;106.10;;;12.80;50.70;;;;;;5102982;28;20027;-73
2020/12/04 06:33:40;;;;;;;112.82;51.80;;;12.80;50.60;;;;;;5112729;28;20031;-73
2020/12/04 06:36:10;;;;;;;187.95;105.43;;;12.80;50.40;;;;;;5103280;28;20036;-73
2020/12/04 06:38:39;;;;;;;150.38;75.07;;;12.80;50.40;;;;;;5093337;28;20028;-73
2020/12/04 06:41:24;;;;;;;196.93;95.68;;;12.80;50.20;;;;;;5103527;28;20023;-72
2020/12/04 06:44:03;;;;;;;159.18;69.93;;;12.80;50.20;;;;;;5111653;28;20039;-73
2020/12/04 06:46:40;;;;;;;123.57;58.58;;;12.90;49.90;;;;;;5100984;28;20406;-73
2020/12/04 06:49:11;;;;;;;108.50;52.35;;;12.90;49.90;;;;;;5100128;28;20035;-73
2020/12/04 06:51:40;;;;;;;562.88;387.45;;;12.80;49.80;;;;;;5113965;28;20023;-73
2020/12/04 06:54:08;;;;;;;68.70;37.53;;;12.90;50.10;;;;;;5112513;28;20403;-73
2020/12/04 06:56:35;;;;;;;86.30;36.10;;;12.90;49.80;;;;;;5113070;28;20040;-73
2020/12/04 06:59:02;;;;;;;248.52;130.57;;;12.90;49.80;;;;;;5109043;27;20040;-73
2020/12/04 07:01:30;;;;;;;165.30;81.80;;;12.80;49.90;;;;;;5096304;28;20039;-73
2020/12/04 07:03:57;;;;;;;181.60;69.05;;;12.80;50.00;;;;;;5092782;28;20418;-72
2020/12/04 07:06:25;;;;;;;78.70;30.65;;;12.70;50.10;;;;;;5094016;28;20372;-72
2020/12/04 07:09:04;;;;;;;78.72;32.17;;;12.70;50.00;;;;;;5112889;28;20050;-73
2020/12/04 07:11:31;;;;;;;49.08;17.13;;;12.70;50.00;;;;;;5110119;28;20058;-72
2020/12/04 07:13:59;;;;;;;41.28;16.15;;;12.80;50.10;;;;;;5113434;28;20494;-72
2020/12/04 07:16:27;;;;;;;40.25;15.70;;;12.70;50.20;;;;;;5112326;28;20039;-72
2020/12/04 07:18:55;;;;;;;38.20;16.58;;;12.70;50.30;;;;;;5091914;28;20052;-72
2020/12/04 07:21:26;;;;;;;35.60;16.67;;;12.70;50.30;;;;;;5092764;28;20036;-72
2020/12/04 07:23:55;;;;;;;35.33;14.27;;;12.70;50.30;;;;;;5093262;28;20055;-72
2020/12/04 07:26:22;;;;;;;38.53;14.82;;;12.60;50.30;;;;;;5091981;28;20479;-72
2020/12/04 07:28:50;;;;;;;50.47;15.77;;;12.70;50.20;;;;;;5091390;28;20071;-72
2020/12/04 07:31:21;;;;;;;39.25;14.13;;;12.70;50.00;;;;;;5108812;28;20027;-72
2020/12/04 07:33:52;;;;;;;49.50;14.93;;;12.80;49.80;;;;;;5110810;28;20127;-72
2020/12/04 07:36:19;;;;;;;38.08;16.10;;;12.90;49.70;;;;;;5113439;28;20032;-72
2020/12/04 07:38:57;;;;;;;35.95;14.88;;;12.80;49.70;;;;;;5097374;28;20051;-72
2020/12/04 07:41:30;;;;;;;40.08;14.82;;;12.80;49.80;;;;;;5108725;28;20476;-72
2020/12/04 07:44:01;;;;;;;41.53;15.55;;;12.80;50.00;;;;;;5110463;28;20376;-73
2020/12/04 07:46:29;;;;;;;48.30;15.73;;;12.80;49.90;;;;;;5113096;28;20027;-72
2020/12/04 07:49:08;;;;;;;43.67;15.02;;;12.70;50.00;;;;;;5097217;28;20044;-72
2020/12/04 07:51:37;;;;;;;49.08;16.38;;;12.80;49.90;;;;;;5091624;28;20031;-71
2020/12/04 07:54:20;;;;;;;51.03;27.48;;;12.80;49.90;;;;;;5100603;28;20507;-72
2020/12/04 07:56:54;;;;;;;42.22;19.42;;;12.80;49.80;;;;;;5112662;28;20027;-74
2020/12/04 07:59:28;;;;;;;69.72;41.10;;;12.80;49.70;;;;;;5111534;28;20039;-74
2020/12/04 08:01:55;;;;;;;65.88;32.58;;;12.80;49.50;;;;;;5112392;28;20474;-74
2020/12/04 08:04:22;;;;;;;50.75;22.27;;;12.80;49.50;;;;;;5111835;28;20490;-73
2020/12/04 08:06:49;;;;;;;48.00;17.65;;;12.80;49.70;;;;;;5111131;28;20488;-75
2020/12/04 08:09:19;;;;;;;72.45;33.65;;;12.90;49.60;;;;;;5112269;28;20024;-72
2020/12/04 08:11:53;;;;;;;39.92;15.88;;;12.80;49.60;;;;;;5111064;28;20396;-73
2020/12/04 08:14:28;;;;;;;33.15;15.02;;;12.90;49.60;;;;;;5112159;28;20046;-73
2020/12/04 08:17:00;;;;;;;43.15;15.80;;;12.90;49.60;;;;;;5112135;28;20035;-73
2020/12/04 08:19:32;;;;;;;43.08;16.42;;;13.00;49.40;;;;;;5112629;28;20034;-74
2020/12/04 08:22:07;;;;;;;48.83;15.82;;;13.00;49.30;;;;;;5112244;28;20035;-74
2020/12/04 08:24:40;;;;;;;38.55;15.55;;;13.00;49.30;;;;;;5111573;28;20051;-73
2020/12/04 08:27:10;;;;;;;43.15;16.30;;;13.00;49.50;;;;;;5111923;28;20024;-73
2020/12/04 08:29:40;;;;;;;40.35;16.77;;;13.00;49.30;;;;;;5112263;28;20468;-73
2020/12/04 08:32:11;;;;;;;43.80;16.58;;;13.00;49.50;;;;;;5111293;28;20040;-73
2020/12/04 08:34:38;;;;;;;37.63;16.83;;;12.90;49.40;;;;;;5111812;28;20043;-74
2020/12/04 08:37:08;;;;;;;49.72;17.27;;;13.00;49.20;;;;;;5112205;28;20027;-73
2020/12/04 08:39:38;;;;;;;42.40;16.95;;;13.00;49.30;;;;;;5111906;28;20024;-74
2020/12/04 08:42:19;;;;;;;44.47;16.75;;;13.00;49.30;;;;;;5110239;28;20031;-73
2020/12/04 08:45:06;;;;;;;37.85;15.10;;;13.00;49.10;;;;;;5111990;28;20379;-72
2020/12/04 08:47:45;;;;;;;42.88;15.35;;;13.00;49.30;;;;;;5111737;28;20380;-73
2020/12/04 08:50:23;;;;;;;38.95;16.73;;;13.10;49.20;;;;;;5111868;28;20517;-73
2020/12/04 08:52:54;;;;;;;44.58;15.55;;;13.10;49.20;;;;;;5108086;28;20036;-72
2020/12/04 08:55:25;;;;;;;45.20;16.45;;;13.00;49.20;;;;;;5092499;28;20047;-72
2020/12/04 08:57:54;;;;;;;35.63;15.32;;;13.10;49.30;;;;;;5092690;28;20384;-72
2020/12/04 09:00:33;;;;;;;41.30;16.73;;;13.00;49.20;;;;;;5091828;28;20032;-73
2020/12/04 09:03:00;;;;;;;39.17;16.85;;;13.00;49.40;;;;;;5092060;28;20036;-73
2020/12/04 09:05:27;;;;;;;42.47;16.52;;;13.00;49.20;;;;;;5092337;28;20036;-73
2020/12/04 09:07:54;;;;;;;40.75;16.40;;;12.90;49.40;;;;;;5101239;28;20028;-72
2020/12/04 09:10:21;;;;;;;37.25;16.60;;;12.90;49.40;;;;;;5090491;28;20043;-74
2020/12/04 09:12:49;;;;;;;46.50;16.08;;;12.80;49.40;;;;;;5093645;28;20036;-73
2020/12/04 09:15:18;;;;;;;38.88;15.38;;;12.80;49.50;;;;;;5107211;28;20493;-73
2020/12/04 09:17:46;;;;;;;43.65;15.75;;;12.70;49.80;;;;;;5113082;28;20089;-73
2020/12/04 09:20:15;;;;;;;45.15;17.83;;;12.60;49.80;;;;;;5107410;28;20149;-73
2020/12/04 09:22:43;;;;;;;47.50;16.27;;;12.60;49.80;;;;;;5095591;28;20023;-74
2020/12/04 09:25:12;;;;;;;46.00;16.30;;;12.60;49.90;;;;;;5097058;28;20036;-74
2020/12/04 09:27:40;;;;;;;49.50;15.93;;;12.60;50.20;;;;;;5104528;28;20436;-73
2020/12/04 09:30:09;;;;;;;39.95;15.13;;;12.50;50.40;;;;;;5107130;28;20024;-74
2020/12/04 09:32:36;;;;;;;37.53;15.95;;;12.50;50.40;;;;;;5107205;28;20039;-73
2020/12/04 09:35:04;;;;;;;41.28;15.27;;;12.50;50.60;;;;;;5113111;28;20513;-74
2020/12/04 09:37:33;;;;;;;45.10;14.88;;;12.50;50.60;;;;;;5102537;28;20032;-73
2020/12/04 09:40:16;;;;;;;50.65;14.80;;;12.50;50.50;;;;;;5093089;28;20049;-74
2020/12/04 09:42:43;;;;;;;52.33;16.58;;;12.40;50.50;;;;;;5095314;28;20024;-73
2020/12/04 09:45:12;;;;;;;42.92;15.07;;;12.40;50.60;;;;;;5113513;28;20494;-75
2020/12/04 09:47:39;;;;;;;42.47;15.13;;;12.30;50.80;;;;;;5113457;28;20036;-74
2020/12/04 09:50:10;;;;;;;34.20;14.55;;;12.30;51.10;;;;;;5115505;28;20399;-73
2020/12/04 09:52:40;;;;;;;54.88;15.13;;;12.30;51.10;;;;;;5101802;28;20446;-73
2020/12/04 09:55:09;;;;;;;49.17;17.58;;;12.30;51.30;;;;;;5100331;28;20051;-73
2020/12/04 09:57:36;;;;;;;36.50;15.63;;;12.20;51.50;;;;;;5101114;28;20048;-73
2020/12/04 10:00:05;;;;;;;47.42;15.43;;;12.30;51.50;;;;;;5112176;28;20039;-73
2020/12/04 10:02:33;;;;;;;44.05;15.63;;;12.30;51.70;;;;;;5105669;28;20024;-73
2020/12/04 10:05:00;;;;;;;41.13;15.98;;;12.20;52.00;;;;;;5093404;28;20103;-74
2020/12/04 10:07:27;;;;;;;41.42;16.23;;;12.20;52.10;;;;;;5113259;28;20031;-73
2020/12/04 10:09:54;;;;;;;36.53;15.80;;;12.20;52.10;;;;;;5094685;28;20044;-74
2020/12/04 10:12:21;;;;;;;44.15;15.00;;;12.30;52.20;;;;;;5094570;28;20388;-73
2020/12/04 10:14:48;;;;;;;38.95;14.63;;;12.30;52.30;;;;;;5111745;28;20042;-73
2020/12/04 10:17:15;;;;;;;41.05;15.05;;;12.20;52.50;;;;;;5100149;28;20043;-73
2020/12/04 10:19:43;;;;;;;43.17;15.93;;;12.30;52.70;;;;;;5094251;28;20036;-72
2020/12/04 10:22:10;;;;;;;46.05;16.58;;;12.30;52.80;;;;;;5104700;28;20043;-72
2020/12/04 10:24:38;;;;;;;44.97;16.02;;;12.20;53.10;;;;;;5104693;28;20024;-72
2020/12/04 10:27:05;;;;;;;44.30;16.25;;;12.20;53.50;;;;;;5094667;28;20043;-72
2020/12/04 10:29:32;;;;;;;46.25;17.88;;;12.10;53.60;;;;;;5094064;28;20035;-72
2020/12/04 10:31:59;;;;;;;42.75;15.40;;;12.00;53.80;;;;;;5094370;28;20028;-71
2020/12/04 10:34:26;;;;;;;40.33;15.73;;;12.00;54.10;;;;;;5110259;28;20047;-71
2020/12/04 10:36:53;;;;;;;38.75;15.65;;;11.90;54.10;;;;;;5110090;28;20043;-72
2020/12/04 10:39:20;;;;;;;38.25;16.00;;;11.90;54.10;;;;;;5108054;28;20033;-73
2020/12/04 10:41:47;;;;;;;40.10;16.40;;;11.90;54.30;;;;;;5110305;28;20030;-72
2020/12/04 10:44:14;;;;;;;44.47;14.90;;;11.80;54.50;;;;;;5093778;28;20027;-73
2020/12/04 10:46:41;;;;;;;42.10;15.73;;;11.80;54.40;;;;;;5094832;28;20028;-74
2020/12/04 10:49:08;;;;;;;39.58;16.17;;;11.90;54.50;;;;;;5111223;28;20495;-74
2020/12/04 10:51:36;;;;;;;43.13;16.08;;;11.90;54.50;;;;;;5111406;28;20044;-74
2020/12/04 10:54:05;;;;;;;44.25;15.45;;;11.80;54.70;;;;;;5112726;28;20048;-73
2020/12/04 10:56:33;;;;;;;48.30;15.18;;;11.90;54.40;;;;;;5113928;28;20027;-74
2020/12/04 10:59:00;;;;;;;44.83;17.08;;;11.90;54.40;;;;;;5109286;28;20036;-74
2020/12/04 11:06:24;;;;;;;38.90;15.77;;;11.70;54.90;;;;;;5113066;28;20023;-75
2020/12/04 11:08:51;;;;;;;42.88;16.65;;;11.70;54.90;;;;;;5111393;28;20026;-74
2020/12/04 11:11:22;;;;;;;40.15;15.80;;;11.80;54.50;;;;;;5107905;28;20039;-72
2020/12/04 11:13:49;;;;;;;40.38;16.83;;;11.80;54.40;;;;;;5108558;28;20062;-75
2020/12/04 11:16:16;;;;;;;44.78;17.50;;;11.80;54.50;;;;;;5113650;28;20035;-74
2020/12/04 11:18:43;;;;;;;50.42;17.98;;;11.80;54.30;;;;;;5106876;28;20031;-73
2020/12/04 11:21:10;;;;;;;46.97;19.88;;;11.80;54.40;;;;;;5096602;28;20038;-72
2020/12/04 11:23:37;;;;;;;36.35;16.88;;;11.90;54.10;;;;;;5093468;28;20027;-73
2020/12/04 11:26:04;;;;;;;42.05;16.63;;;11.90;54.00;;;;;;5094231;28;20360;-71
2020/12/04 11:28:31;;;;;;;35.45;16.33;;;11.90;54.10;;;;;;5102100;28;20024;-73
2020/12/04 11:30:58;;;;;;;44.38;18.17;;;11.90;53.80;;;;;;5093810;28;20028;-73
2020/12/04 11:33:25;;;;;;;36.78;18.35;;;11.90;54.40;;;;;;5092927;28;20028;-74
2020/12/04 11:35:52;;;;;;;38.10;17.95;;;11.80;54.10;;;;;;5092971;28;20040;-73
2020/12/04 11:38:19;;;;;;;39.25;17.90;;;11.80;54.20;;;;;;5093907;28;20483;-71
2020/12/04 11:40:46;;;;;;;38.50;17.85;;;11.80;54.20;;;;;;5111042;28;20039;-73
2020/12/04 11:43:13;;;;;;;49.83;17.42;;;11.80;54.10;;;;;;5092726;28;20020;-72
2020/12/04 11:45:40;;;;;;;38.65;18.65;;;11.80;54.20;;;;;;5106182;28;20035;-72
2020/12/04 11:48:06;;;;;;;43.00;18.25;;;11.80;54.30;;;;;;5107702;28;20121;-72
2020/12/04 11:50:34;;;;;;;44.63;18.95;;;11.80;54.50;;;;;;5093474;28;20035;-72
2020/12/04 11:53:01;;;;;;;37.75;17.73;;;11.70;54.60;;;;;;5093596;28;20024;-75
2020/12/04 11:55:28;;;;;;;37.17;17.60;;;11.70;54.70;;;;;;5093324;28;20177;-73
2020/12/04 11:57:55;;;;;;;39.53;19.58;;;11.70;54.80;;;;;;5092096;28;20035;-71
2020/12/04 12:00:22;;;;;;;39.33;18.42;;;11.60;54.90;;;;;;5093715;28;20036;-72
2020/12/04 12:02:49;;;;;;;41.03;20.60;;;11.60;54.90;;;;;;5093056;28;20024;-72
2020/12/04 12:05:16;;;;;;;41.75;20.42;;;11.60;54.80;;;;;;5092507;28;20032;-75
2020/12/04 12:07:43;;;;;;;43.00;19.40;;;11.60;54.70;;;;;;5096171;28;20023;-73
2020/12/04 12:10:10;;;;;;;43.28;19.65;;;11.70;54.60;;;;;;5093578;28;20038;-73
2020/12/04 12:12:38;;;;;;;43.95;19.20;;;11.60;54.70;;;;;;5093866;28;20024;-74
2020/12/04 12:15:06;;;;;;;41.70;19.08;;;11.60;54.70;;;;;;5112055;28;20043;-75
2020/12/04 12:17:36;;;;;;;38.53;18.35;;;11.50;54.80;;;;;;5112141;28;20023;-73
2020/12/04 12:20:03;;;;;;;39.00;18.23;;;11.60;54.90;;;;;;5105959;28;20395;-72
2020/12/04 12:22:30;;;;;;;38.97;18.13;;;11.50;54.90;;;;;;5092995;28;20047;-71
2020/12/04 12:24:57;;;;;;;36.47;18.17;;;11.50;54.80;;;;;;5104611;28;20030;-72
2020/12/04 12:27:24;;;;;;;39.95;17.60;;;11.50;54.80;;;;;;5112241;28;20467;-72
2020/12/04 12:29:56;;;;;;;36.20;18.00;;;11.50;54.70;;;;;;5109926;28;20040;-72
2020/12/04 12:32:25;;;;;;;40.35;17.80;;;11.50;54.60;;;;;;5101046;28;20043;-73
2020/12/04 12:37:37;;;;;;;39.42;17.63;;;11.50;54.40;;;;;;5091998;28;20067;-73
2020/12/04 12:40:06;;;;;;;37.95;19.02;;;11.50;54.30;;;;;;5110174;28;20035;-72
2020/12/04 12:42:34;;;;;;;40.35;18.75;;;11.40;54.40;;;;;;5110318;28;20024;-69
2020/12/04 12:45:01;;;;;;;36.30;19.63;;;11.40;54.50;;;;;;5109474;28;20051;-71